• Join FlightAware (Why Join?)
  • Login
  • US Flag 
12:53AM EDT


 

Airport Tracker/Info


-or-


 

Live Flight TrackerFlight Track Log ✈ F-HPJG ✈ 06-May-2013 ✈ LFPG / CDG - RJAA / NRT

Flight Track Log - Related Links

Times and Time Zones

All times are in EDT time to prevent confusion due to time zone crossing. See the F-HPJG flight status page for this flight to view local times or setup timezone preferences in your user account.

Time Position Orientation Groundspeed Altitude Reporting Facility
EDT Latitude Longitude Course Direction KTS MPH feet Rate Location/Type
08:51AM 49.1869 2.7234 33° Northeast  Level Estimated
09:04AM 49.0223 2.5450 84° East 135 155 200  Level FlightAware ADS-B
09:04AM 49.0232 2.5621 85° East 168 193 300 720 Climbing FlightAware ADS-B
09:04AM 49.0243 2.5822 85° East 172 198 600 1,260 Climbing FlightAware ADS-B
09:05AM 49.0253 2.6004 85° East 172 198 1,000 1,560 Climbing FlightAware ADS-B
09:05AM 49.0263 2.6191 85° East 173 199 1,400 1,500 Climbing FlightAware ADS-B
09:05AM 49.0275 2.6377 84° East 172 198 1,800 1,500 Climbing FlightAware ADS-B
09:05AM 49.0284 2.6562 86° East 169 194 2,200 1,500 Climbing FlightAware ADS-B
09:06AM 49.0293 2.6743 86° East 171 197 2,600 1,740 Climbing FlightAware ADS-B
09:06AM 49.0304 2.6931 85° East 170 196 3,100 1,740 Climbing FlightAware ADS-B
09:06AM 49.0313 2.7113 86° East 174 200 3,500 1,140 Climbing FlightAware ADS-B
09:06AM 49.0321 2.7243 85° East 185 213 3,600 360 Climbing FlightAware ADS-B
09:06AM 49.0329 2.7326 82° East 192 221 3,600 540 Level FlightAware ADS-B
09:06AM 49.0342 2.7389 72° East 198 228 3,700 660 Climbing FlightAware ADS-B
09:06AM 49.0354 2.7433 68° East 202 232 3,700 720 Level FlightAware ADS-B
09:07AM 49.0377 2.7490 58° Northeast 206 237 3,800 840 Climbing FlightAware ADS-B
09:07AM 49.0395 2.7524 50° Northeast 210 242 3,800 960 Level FlightAware ADS-B
09:07AM 49.0417 2.7556 44° Northeast 212 244 3,900 960 Climbing FlightAware ADS-B
09:07AM 49.0440 2.7584 38° Northeast 215 247 3,900 720 Level FlightAware ADS-B
09:07AM 49.0485 2.7620 28° Northeast 221 254 4,000 1,320 Climbing FlightAware ADS-B
09:07AM 49.0526 2.7641 18° North 227 261 4,100 720 Climbing FlightAware ADS-B
09:07AM 49.0560 2.7651 11° North 232 267 4,100 780 Level FlightAware ADS-B
09:07AM 49.0683 2.7667 North 248 285 4,300 960 Climbing FlightAware ADS-B
09:07AM 49.0769 2.7671 North 259 298 4,400 840 Climbing FlightAware ADS-B
09:07AM 49.0848 2.7671 360° North 263 303 4,500 2,040 Climbing FlightAware ADS-B
09:08AM 49.1050 2.7663 358° North 269 310 5,200 2,400 Climbing FlightAware ADS-B
09:08AM 49.1183 2.7653 357° North 271 312 5,600 2,400 Climbing FlightAware ADS-B
09:08AM 49.1595 2.7622 357° North 276 318 7,000 2,340 Climbing FlightAware ADS-B
09:08AM 49.1736 2.7614 358° North 285 328 7,300 1,620 Climbing FlightAware ADS-B
09:09AM 49.1885 2.7612 360° North 290 334 7,600 2,220 Climbing FlightAware ADS-B
09:09AM 49.2097 2.7614 360° North 291 335 8,300 2,820 Climbing FlightAware ADS-B
09:09AM 49.2176 2.7614 360° North 287 330 8,600 2,160 Climbing FlightAware ADS-B
09:09AM 49.2388 2.7610 359° North 297 342 9,100 1,920 Climbing FlightAware ADS-B
09:10AM 49.2645 2.7606 359° North 302 348 9,700 1,800 Climbing FlightAware ADS-B
09:10AM 49.3085 2.7602 360° North 318 366 10,600 1,620 Climbing FlightAware ADS-B
09:10AM 49.3174 2.7602 360° North 324 373 10,700 900 Climbing FlightAware ADS-B
09:11AM 49.3585 2.7604 360° North 349 402 11,100 900 Climbing FlightAware ADS-B
09:11AM 49.4099 2.7600 360° North 379 436 11,600 1,080 Climbing FlightAware ADS-B
09:12AM 49.4614 2.7597 360° North 398 458 12,200 1,680 Climbing FlightAware ADS-B
09:12AM 49.5188 2.7601 360° North 406 467 13,300 2,400 Climbing FlightAware ADS-B
09:13AM 49.5779 2.7603 360° North 406 467 14,700 2,460 Climbing FlightAware ADS-B
09:13AM 49.6352 2.7609 360° North 410 472 15,900 2,040 Climbing FlightAware ADS-B
09:14AM 49.6990 2.7624 North 420 483 16,900 1,620 Climbing FlightAware ADS-B
09:14AM 49.7555 2.7637 North 429 494 17,600 1,500 Climbing FlightAware ADS-B
09:14AM 49.7688 2.7655 North 432 497 17,800 1,200 Climbing FlightAware ADS-B
09:14AM 49.7861 2.7715 12° North 434 499 17,900 1,320 Climbing FlightAware ADS-B
09:15AM 49.8092 2.7866 23° Northeast 437 503 18,300 240 Climbing FlightAware ADS-B
09:15AM 49.8538 2.8462 23° Northeast 434 499 18,100 2,340 Descending FlightAware UK
09:15AM 49.8716 2.8692 23° Northeast 430 495 19,900 1,500 Climbing FlightAware ADS-B
09:16AM 49.9060 2.9188 23° Northeast 440 506 19,000 1,500 Descending FlightAware UK
09:16AM 49.9330 2.9550 23° Northeast 439 505 21,000 4,080 Climbing FlightAware
09:16AM 49.9638 2.9987 42° Northeast 442 509 21,600 1,800 Climbing FlightAware ADS-B
09:17AM 49.9960 3.0431 42° Northeast 446 513 22,200 -780 Climbing FlightAware ADS-B
09:17AM 50.0254 3.0825 42° Northeast 454 522 21,100 1,320 Descending FlightAware UK
09:17AM 50.0524 3.1118 42° Northeast 453 521 23,000 2,880 Climbing FlightAware ADS-B
09:18AM 50.1245 3.1944 36° Northeast 463 533 23,900 -240 Climbing FlightAware ADS-B
09:18AM 50.1615 3.2318 36° Northeast 464 534 22,800 -480 Descending FlightAware UK
09:19AM 50.2245 3.2634 18° North 468 539 23,500 3,840 Climbing FlightAware UK
09:19AM 50.2270 3.2650 18° North 480 552 25,000 3,120 Climbing FlightAware
09:20AM 50.3080 3.3070 18° North 488 562 25,800 1,020 Climbing FlightAware
09:20AM 50.4110 3.3630 19° North 499 574 26,500 1,020 Climbing FlightAware
09:21AM 50.4950 3.4090 19° North 504 580 27,300 -300 Climbing FlightAware
09:21AM 50.5492 3.4384 19° North 486 559 26,200 1,320 Descending FlightAware UK
09:22AM 50.5910 3.4610 19° North 503 579 28,300 3,240 Climbing FlightAware
09:22AM 50.6800 3.5090 19° North 494 568 29,700 1,440 Climbing FlightAware
09:23AM 50.7800 3.5640 19° North 500 575 30,400 -480 Climbing FlightAware
09:24AM 50.8626 3.6099 19° North 486 559 29,100 420 Descending FlightAware UK
09:24AM 50.8670 3.6120 19° North 511 588 30,700 2,520 Climbing FlightAware
09:25AM 50.9570 3.6680 21° North 511 588 31,000 180 Climbing FlightAware
09:25AM 51.0510 3.7370 25° Northeast 509 586 31,000 -1,200 Level FlightAware
09:26AM 51.1236 3.7881 25° Northeast 482 555 29,500  Descending FlightAware UK
09:26AM 51.1390 3.8000 25° Northeast 507 583 31,000 1,800 Climbing FlightAware
09:27AM 51.2230 3.8620 25° Northeast 507 583 31,000  Level FlightAware
09:27AM 51.3210 3.9330 24° Northeast 508 585 31,000  Level FlightAware
09:28AM 51.3990 3.9900 25° Northeast 508 585 31,000 -720 Level FlightAware
09:29AM 51.4948 4.0587 25° Northeast 486 559 30,100 900 Descending FlightAware UK
09:29AM 51.5020 4.0660 25° Northeast 511 588 31,700 960 Climbing FlightAware
09:29AM 51.5846 4.1257 25° Northeast 488 562 30,800 1,020 Descending FlightAware UK
09:29AM 51.5870 4.1300 25° Northeast 510 587 32,400 1,680 Climbing FlightAware
09:30AM 51.6742 4.1924 25° Northeast 484 557 32,000 1,620 Descending FlightAware UK
09:30AM 51.6730 4.1930 25° Northeast 500 575 33,500 480 Climbing FlightAware
09:30AM 51.7249 4.2299 25° Northeast 484 557 32,200 780 Descending FlightAware UK
09:31AM 51.7690 4.2660 25° Northeast 502 578 34,100 660 Climbing FlightAware
09:31AM 51.8131 4.2957 25° Northeast 482 555 32,700 420 Descending FlightAware UK
09:32AM 51.8530 4.3280 25° Northeast 509 586 34,400 480 Climbing FlightAware
09:32AM 51.8885 4.3531 25° Northeast 480 552 33,000 -2,580 Descending FlightAware UK
09:32AM 51.9264 4.3822 25° Northeast 482 555 33,000 3,180 Level FlightAware UK
09:32AM 51.9400 4.3940 25° Northeast 516 594 34,600 2,040 Climbing FlightAware
09:33AM 52.0300 4.4630 25° Northeast 522 601 34,800 -960 Climbing FlightAware
09:33AM 52.1001 4.5483 25° Northeast 484 557 33,500 300 Descending FlightAware UK
09:34AM 52.1070 4.5620 25° Northeast 519 597 35,000  Climbing FlightAware
09:34AM 52.1493 4.6345 25° Northeast 484 557 33,500  Descending FlightAware UK
09:34AM 52.1840 4.6940 25° Northeast 520 598 35,000 1,380 Climbing FlightAware
09:35AM 52.2480 4.8020 46° Northeast 518 596 35,000  Level FlightAware
09:36AM 52.3150 4.9130 45° Northeast 517 595 35,000 -1,620 Level FlightAware
09:36AM 52.3481 4.9710 45° Northeast 482 555 33,500 -2,580 Descending FlightAware UK
09:36AM 52.3749 5.0195 48° Northeast 482 555 33,500 3,180 Level FlightAware UK
09:36AM 52.3880 5.0370 48° Northeast 517 595 35,000 1,800 Climbing FlightAware
09:37AM 52.4540 5.1490 46° Northeast 517 595 35,000  Level FlightAware
09:38AM 52.5260 5.2730 46° Northeast 514 592 35,000 -1,440 Level FlightAware
09:38AM 52.5672 5.3429 46° Northeast 482 555 33,500  Descending FlightAware UK
09:39AM 52.5930 5.3880 46° Northeast 512 589 35,000 1,440 Climbing FlightAware
09:39AM 52.6610 5.5040 46° Northeast 512 589 35,000 -1,320 Level FlightAware
09:40AM 52.7155 5.5966 46° Northeast 490 564 33,500  Descending FlightAware UK
09:40AM 52.7320 5.6270 46° Northeast 509 586 35,000  Climbing FlightAware
09:40AM 52.7828 5.7147 46° Northeast 486 559 33,500  Descending FlightAware UK
09:41AM 52.7970 5.7400 46° Northeast 503 579 35,000  Climbing FlightAware
09:41AM 52.8302 5.7982 46° Northeast 482 555 33,500 -2,700 Descending FlightAware UK
09:41AM 52.8606 5.8486 45° Northeast 482 555 33,500 3,720 Level FlightAware UK
09:41AM 52.8570 5.8450 45° Northeast 504 580 35,000  Climbing FlightAware
09:42AM 52.8988 5.9159 45° Northeast 480 552 33,500 -2,520 Descending FlightAware UK
09:42AM 52.9274 5.9664 47° Northeast 482 555 33,500 2,760 Level FlightAware UK
09:42AM 52.9430 5.9960 47° Northeast 507 583 35,000  Climbing FlightAware
09:42AM 52.9840 6.0678 47° Northeast 482 555 33,500  Descending FlightAware UK
09:43AM 53.0020 6.1010 47° Northeast 507 583 35,000  Climbing FlightAware
09:43AM 53.0410 6.1699 47° Northeast 484 557 33,500 -2,520 Descending FlightAware UK
09:43AM 53.0699 6.2212 47° Northeast 488 562 33,500 4,080 Level FlightAware UK
09:43AM 53.0700 6.2210 47° Northeast 508 585 35,000  Climbing FlightAware
09:44AM 53.1079 6.2895 47° Northeast 488 562 33,500  Descending FlightAware UK
09:44AM 53.1380 6.3430 47° Northeast 505 581 35,000  Climbing FlightAware
09:44AM 53.1749 6.4090 47° Northeast 484 557 33,500  Descending FlightAware UK
09:45AM 53.2070 6.4670 47° Northeast 504 580 35,000  Climbing FlightAware
09:45AM 53.2509 6.5457 47° Northeast 484 557 33,500  Descending FlightAware UK
09:46AM 53.2700 6.5800 47° Northeast 505 581 35,000  Climbing FlightAware
09:46AM 53.2984 6.6314 47° Northeast 1 1 33,500 -2,760 Descending FlightAware UK
09:46AM 53.3273 6.6828 47° Northeast 1 1 33,500 3,000 Level FlightAware UK
09:46AM 53.3400 6.7070 47° Northeast 506 582 35,000  Climbing FlightAware
09:47AM 53.3747 6.7689 47° Northeast 1 1 33,500 -2,520 Descending FlightAware UK
09:47AM 53.4031 6.8207 47° Northeast 1 1 33,500 4,080 Level FlightAware UK
09:47AM 53.4020 6.8200 47° Northeast 507 583 35,000  Climbing FlightAware
09:47AM 53.4389 6.8904 47° Northeast 1 1 33,500 -2,400 Descending FlightAware UK
09:48AM 53.4688 6.9427 46° Northeast 1 1 33,500 4,500 Level FlightAware UK
09:48AM 53.4670 6.9390 46° Northeast 506 582 35,000  Climbing FlightAware
09:48AM 53.4985 6.9947 46° Northeast 1 1 33,500  Descending FlightAware UK
09:48AM 53.5340 7.0620 46° Northeast 506 582 35,000 1,260 Climbing FlightAware
09:49AM 53.6010 7.1850 47° Northeast 504 580 35,000  Level FlightAware
09:50AM 53.6730 7.3190 48° Northeast 502 578 35,000  Level FlightAware
09:50AM 53.7350 7.4350 48° Northeast 504 580 35,000  Level FlightAware
09:51AM 53.7980 7.5520 48° Northeast 504 580 35,000  Level FlightAware
09:52AM 53.8660 7.6810 48° Northeast 499 574 35,000  Level FlightAware
09:53AM 53.9260 7.7950 48° Northeast 497 572 35,000  Level FlightAware
09:53AM 53.9970 7.9300 48° Northeast 497 572 35,000  Level FlightAware
09:54AM 54.0620 8.0540 48° Northeast 495 570 35,000  Level FlightAware
09:55AM 54.1220 8.1700 49° Northeast 495 570 35,000  Level FlightAware
09:55AM 54.1850 8.2910 48° Northeast 496 571 35,000  Level FlightAware
09:56AM 54.2530 8.4230 49° Northeast 497 572 35,000  Level FlightAware
09:57AM 54.3110 8.5370 49° Northeast 498 573 35,000  Level FlightAware
09:57AM 54.3730 8.6570 48° Northeast 500 575 35,000  Level FlightAware
09:58AM 54.4410 8.7930 49° Northeast 500 575 35,000  Level FlightAware
09:59AM 54.5020 8.9140 49° Northeast 498 573 35,000  Level FlightAware
10:00AM 54.5620 9.0440 51° Northeast 496 571 35,000  Level FlightAware
10:00AM 54.6250 9.1750 50° Northeast 493 567 35,000  Level FlightAware
10:01AM 54.6880 9.3070 50° Northeast 491 565 35,000  Level FlightAware
10:02AM 54.7450 9.4290 51° Northeast 492 566 35,000  Level FlightAware
10:02AM 54.8060 9.5590 51° Northeast 492 566 35,000  Level FlightAware
10:03AM 54.8690 9.6950 51° Northeast 492 566 35,000  Level FlightAware
10:04AM 54.9230 9.8110 51° Northeast 491 565 35,000  Level FlightAware
10:05AM 54.9890 9.9540 51° Northeast 492 566 35,000  Level FlightAware
10:05AM 55.0450 10.0760 51° Northeast 492 566 35,000  Level FlightAware
10:06AM 55.1020 10.2000 51° Northeast 493 567 35,000  Level FlightAware
10:07AM 55.1690 10.3480 52° Northeast 494 568 35,000  Level FlightAware
10:07AM 55.2230 10.4680 52° Northeast 496 571 35,000  Level FlightAware
10:08AM 55.2800 10.5930 51° Northeast 498 573 35,000  Level FlightAware
10:09AM 55.3460 10.7410 52° Northeast 499 574 35,000  Level FlightAware
10:09AM 55.4030 10.8700 52° Northeast 500 575 35,000  Level FlightAware
10:10AM 55.4660 11.0110 52° Northeast 500 575 35,000  Level FlightAware
10:11AM 55.5220 11.1400 52° Northeast 499 574 35,000  Level FlightAware
10:11AM 55.5800 11.2710 52° Northeast 497 572 35,000  Level FlightAware
10:12AM 55.6420 11.4140 52° Northeast 495 570 35,000  Level FlightAware
10:13AM 55.6970 11.5420 53° Northeast 493 567 35,000  Level FlightAware
10:14AM 55.7580 11.6830 52° Northeast 493 567 35,000  Level FlightAware
10:14AM 55.8130 11.8130 53° Northeast 493 567 35,000  Level FlightAware
10:15AM 55.8690 11.9430 52° Northeast 493 567 35,000  Level FlightAware
10:16AM 55.9300 12.0890 53° Northeast 494 568 35,000  Level FlightAware
10:16AM 55.9840 12.2170 53° Northeast 493 567 35,000  Level FlightAware
10:17AM 56.0480 12.3680 53° Northeast 491 565 35,000  Level FlightAware
10:18AM 56.0990 12.4930 54° Northeast 491 565 35,000  Level FlightAware
10:18AM 56.1530 12.6230 53° Northeast 492 566 35,000  Level FlightAware
10:19AM 56.2160 12.7760 53° Northeast 495 570 35,000  Level FlightAware
10:20AM 56.2710 12.9090 53° Northeast 498 573 35,000  Level FlightAware
10:21AM 56.3320 13.0600 54° Northeast 501 577 35,000  Level FlightAware
10:21AM 56.3870 13.1960 54° Northeast 503 579 35,000  Level FlightAware
10:22AM 56.4380 13.3240 54° Northeast 504 580 35,000  Level FlightAware
10:23AM 56.5000 13.4770 54° Northeast 506 582 35,000  Level FlightAware
10:23AM 56.5560 13.6200 55° Northeast 501 577 35,000  Level FlightAware
10:24AM 56.6150 13.7690 54° Northeast 498 573 35,000  Level FlightAware
10:25AM 56.6690 13.9060 54° Northeast 499 574 35,000  Level FlightAware
10:25AM 56.7240 14.0460 54° Northeast 497 572 35,000  Level FlightAware
10:26AM 56.7820 14.1950 55° Northeast 487 560 35,000  Level FlightAware
10:27AM 56.8320 14.3260 55° Northeast 486 559 35,000  Level FlightAware
10:28AM 56.8850 14.4650 55° Northeast 490 564 35,000  Level FlightAware
10:28AM 56.9430 14.6160 55° Northeast 492 566 35,000  Level FlightAware
10:29AM 56.9960 14.7540 55° Northeast 492 566 35,000  Level FlightAware
10:30AM 57.0530 14.9060 55° Northeast 493 567 35,000  Level FlightAware
10:30AM 57.1000 15.0320 55° Northeast 492 566 35,000  Level FlightAware
10:31AM 57.1610 15.1950 55° Northeast 493 567 35,000  Level FlightAware
10:32AM 57.2130 15.3380 56° Northeast 492 566 35,000  Level FlightAware
10:32AM 57.2640 15.4760 56° Northeast 488 562 35,000  Level FlightAware
10:33AM 57.3200 15.6280 56° Northeast 488 562 35,000  Level FlightAware
10:34AM 57.3690 15.7640 56° Northeast 488 562 35,000  Level FlightAware
10:35AM 57.4270 15.9240 56° Northeast 489 563 35,000  Level FlightAware
10:35AM 57.4760 16.0600 56° Northeast 488 562 35,000  Level FlightAware
10:36AM 57.5330 16.2210 57° Northeast 489 563 35,000  Level FlightAware
10:37AM 57.5830 16.3610 56° Northeast 491 565 35,000  Level FlightAware
10:37AM 57.6330 16.5020 56° Northeast 492 566 35,000  Level FlightAware
10:38AM 57.6820 16.6440 57° Northeast 492 566 35,000  Level FlightAware
10:39AM 57.7270 16.7720 57° Northeast 491 565 35,000  Level FlightAware
10:39AM 57.7870 16.9460 57° Northeast 491 565 35,000  Level FlightAware
10:40AM 57.8450 17.1140 57° Northeast 492 566 35,000  Level FlightAware
10:41AM 57.8940 17.2580 57° Northeast 493 567 35,000  Level FlightAware
10:42AM 57.9420 17.4000 57° Northeast 494 568 35,000  Level FlightAware
10:42AM 57.9960 17.5590 57° Northeast 494 568 35,000  Level FlightAware
10:43AM 58.0440 17.7030 58° Northeast 496 571 35,000  Level FlightAware
10:44AM 58.1010 17.8740 58° Northeast 496 571 35,000  Level FlightAware
10:44AM 58.1500 18.0200 57° Northeast 496 571 35,000  Level FlightAware
10:45AM 58.1990 18.1680 58° Northeast 498 573 35,000  Level FlightAware
10:46AM 58.2590 18.3220 53° Northeast 497 572 35,000  Level FlightAware
10:46AM 58.3120 18.4600 54° Northeast 499 574 35,000  Level FlightAware
10:47AM 58.3680 18.6060 54° Northeast 500 575 35,000  Level FlightAware
10:48AM 58.4280 18.7650 54° Northeast 503 579 35,000  Level FlightAware
10:49AM 58.4820 18.9090 54° Northeast 504 580 35,000  Level FlightAware
10:49AM 58.5450 19.0770 54° Northeast 503 579 35,000  Level FlightAware
10:50AM 58.5950 19.2130 55° Northeast 505 581 35,000  Level FlightAware
10:51AM 58.6560 19.3810 55° Northeast 507 583 35,000  Level FlightAware
10:51AM 58.7110 19.5290 54° Northeast 509 586 35,000  Level FlightAware
10:52AM 58.7660 19.6790 55° Northeast 510 587 35,000  Level FlightAware
10:53AM 58.8320 19.8330 50° Northeast 510 587 35,000  Level FlightAware
10:53AM 58.8940 19.9780 50° Northeast 508 585 35,000  Level FlightAware
10:54AM 58.9590 20.1320 51° Northeast 508 585 35,000  Level FlightAware
10:55AM 59.0170 20.2740 52° Northeast 508 585 35,000  Level FlightAware
10:56AM 59.0760 20.4170 51° Northeast 510 587 35,000  Level FlightAware
10:56AM 59.1440 20.5820 51° Northeast 509 586 35,000  Level FlightAware
10:57AM 59.2020 20.7250 52° Northeast 511 588 35,000  Level FlightAware
10:58AM 59.2610 20.8700 51° Northeast 513 590 35,000  Level FlightAware
10:58AM 59.3250 21.0310 52° Northeast 514 592 35,000  Level FlightAware
10:59AM 59.3840 21.1770 52° Northeast 513 590 35,000  Level FlightAware
11:00AM 59.4420 21.3240 52° Northeast 513 590 35,000  Level FlightAware
11:00AM 59.5090 21.4940 52° Northeast 514 592 35,000  Level FlightAware
11:01AM 59.5660 21.6390 52° Northeast 514 592 35,000  Level FlightAware
11:02AM 59.6300 21.8040 52° Northeast 515 593 35,000  Level FlightAware
11:03AM 59.6880 21.9540 53° Northeast 514 592 35,000  Level FlightAware
11:03AM 59.7550 22.1280 53° Northeast 516 594 35,000  Level FlightAware
11:04AM 59.8110 22.2750 53° Northeast 516 594 35,000  Level FlightAware
11:05AM 59.8680 22.4280 53° Northeast 515 593 35,000  Level FlightAware
11:05AM 59.9310 22.5930 53° Northeast 514 592 35,000  Level FlightAware
11:06AM 59.9940 22.7630 53° Northeast 515 593 35,000  Level FlightAware
11:07AM 60.0470 22.9070 54° Northeast 514 592 35,000  Level FlightAware
11:07AM 60.1050 23.0650 54° Northeast 515 593 35,000  Level FlightAware
11:09AM 60.2260 23.3970 54° Northeast 518 596 35,000  Level FlightAware
11:10AM 60.2830 23.5530 54° Northeast 519 597 35,000  Level FlightAware
11:10AM 60.3440 23.7250 54° Northeast 521 600 35,000  Level FlightAware
11:11AM 60.4010 23.8830 54° Northeast 520 598 35,000  Level FlightAware
11:12AM 60.4570 24.0420 54° Northeast 518 596 35,000  Level FlightAware
11:12AM 60.5190 24.2190 55° Northeast 518 596 35,000  Level FlightAware
11:13AM 60.5740 24.3780 55° Northeast 520 598 35,000  Level FlightAware
11:14AM 60.6250 24.5260 55° Northeast 519 597 35,000  Level FlightAware
11:14AM 60.6590 24.6250 55° Northeast 518 596 35,000  Level FlightAware
11:15AM 60.7230 24.8100 55° Northeast 512 589 35,000  Level FlightAware
11:16AM 60.7850 24.9940 55° Northeast 513 590 35,000  Level FlightAware
11:16AM 60.8470 25.1780 55° Northeast 513 590 35,000  Level FlightAware
11:17AM 60.9010 25.3390 55° Northeast 513 590 35,000  Level FlightAware
11:18AM 60.9740 25.5620 56° Northeast 513 590 35,000  Level FlightAware
11:19AM 61.0440 25.7730 56° Northeast 514 592 35,000  Level FlightAware
11:20AM 61.1060 25.9660 56° Northeast 510 587 35,000  Level FlightAware
11:20AM 61.1520 26.1070 56° Northeast 510 587 35,000  Level FlightAware
11:21AM 61.2140 26.3020 57° Northeast 510 587 35,000  Level FlightAware
11:22AM 61.2660 26.4640 56° Northeast 510 587 35,000  Level FlightAware
11:22AM 61.3190 26.6330 57° Northeast 511 588 35,000  Level FlightAware
11:23AM 61.3740 26.8080 57° Northeast 511 588 35,000  Level FlightAware
11:24AM 61.4360 27.0070 57° Northeast 511 588 35,000  Level FlightAware
11:25AM 61.5010 27.2170 57° Northeast 515 593 35,000  Level FlightAware
11:25AM 61.5580 27.4060 58° Northeast 515 593 35,000  Level FlightAware
11:26AM 61.6100 27.5750 57° Northeast 514 592 35,000  Level FlightAware
11:27AM 61.6610 27.7450 58° Northeast 515 593 35,000  Level FlightAware
11:28AM 61.7180 27.9350 58° Northeast 515 593 35,000  Level FlightAware
11:28AM 61.7680 28.1050 58° Northeast 514 592 35,000  Level FlightAware
11:29AM 61.8230 28.2940 58° Northeast 514 592 35,000  Level FlightAware
11:30AM 61.8740 28.4660 58° Northeast 513 590 35,000  Level FlightAware
11:30AM 61.9220 28.6320 58° Northeast 514 592 35,000  Level FlightAware
11:31AM 61.9780 28.8290 59° Northeast 516 594 35,000  Level FlightAware
11:32AM 62.0270 29.0020 59° Northeast 517 595 35,000  Level FlightAware
11:32AM 62.0830 29.1990 59° Northeast 516 594 35,000  Level FlightAware
11:33AM 62.1310 29.3710 59° Northeast 513 590 35,000  Level FlightAware
11:34AM 62.1790 29.5440 59° Northeast 511 588 35,000  Level FlightAware
11:35AM 62.2330 29.7370 59° Northeast 512 589 35,000  Level FlightAware
11:35AM 62.2810 29.9140 60° Northeast 513 590 35,000  Level FlightAware
11:36AM 62.3340 30.1100 60° Northeast 512 589 35,000  Level FlightAware
11:37AM 62.3990 30.3510 60° Northeast 510 587 35,000  Level FlightAware
11:38AM 62.4460 30.5270 60° Northeast 509 586 35,000  Level FlightAware
11:38AM 62.4840 30.6730 61° Northeast 509 586 35,000  Level FlightAware
11:39AM 62.5500 30.9240 60° Northeast 509 586 35,000  Level FlightAware
11:40AM 62.6030 31.1250 60° Northeast 509 586 35,000  Level FlightAware
11:41AM 62.6510 31.3140 61° Northeast 512 589 35,000  Level FlightAware
11:41AM 62.7080 31.5090 57° Northeast 505 581 35,000  Level FlightAware
11:42AM 62.7560 31.6480 53° Northeast 500 575 35,000  Level FlightAware
11:43AM 62.8140 31.8220 54° Northeast 500 575 35,000 480 Level FlightAware
11:43AM 62.8690 31.9990 56° Northeast 501 577 35,700 960 Climbing FlightAware
11:44AM 62.9250 32.1750 55° Northeast 503 579 36,200 300 Climbing FlightAware
11:45AM 62.9780 32.3420 55° Northeast 503 579 36,200 540 Level FlightAware
11:45AM 63.0370 32.5310 55° Northeast 490 564 37,000 600 Climbing FlightAware
11:46AM 63.0810 32.6700 55° Northeast 490 564 37,000  Level FlightAware
11:47AM 63.1360 32.8450 55° Northeast 490 564 37,000  Level FlightAware
11:47AM 63.1700 32.9500 54° Northeast 490 564 37,000  Level FlightAware
11:48AM 63.2250 33.1250 55° Northeast 490 564 37,000  Level FlightAware
11:49AM 63.2690 33.2650 55° Northeast 490 564 37,000  Level FlightAware
11:50AM 63.3130 33.4060 55° Northeast 490 564 37,000  Level FlightAware
11:50AM 63.3690 33.5820 55° Northeast 490 564 37,000  Level FlightAware
11:51AM 63.4130 33.7230 55° Northeast 490 564 37,000  Level FlightAware
11:52AM 63.4570 33.8640 55° Northeast 490 564 37,000  Level FlightAware
11:52AM 63.5010 34.0050 55° Northeast 490 564 37,000  Level FlightAware
11:53AM 63.5560 34.1820 55° Northeast 490 564 37,000  Level FlightAware
11:54AM 63.6010 34.3240 54° Northeast 490 564 37,000  Level FlightAware
11:55AM 63.6450 34.4660 55° Northeast 490 564 37,000  Level FlightAware
11:57AM 63.7681 34.9426 60° Northeast  Level Estimated
11:58AM 63.8328 35.1973 60° Northeast  Level Estimated
11:59AM 63.8971 35.4532 60° Northeast  Level Estimated
12:00PM 63.9609 35.7103 60° Northeast  Level Estimated
12:01PM 64.0243 35.9685 61° Northeast  Level Estimated
12:02PM 64.0872 36.2279 61° Northeast  Level Estimated
12:03PM 64.1496 36.4885 61° Northeast  Level Estimated
12:04PM 64.2116 36.7503 61° Northeast  Level Estimated
12:05PM 64.2730 37.0132 62° Northeast  Level Estimated
12:06PM 64.3341 37.2773 62° Northeast  Level Estimated
12:07PM 64.3946 37.5425 62° Northeast  Level Estimated
12:08PM 64.4547 37.8089 62° Northeast  Level Estimated
12:09PM 64.5143 38.0765 63° Northeast  Level Estimated
12:10PM 64.5733 38.3453 63° Northeast  Level Estimated
12:11PM 64.6319 38.6152 63° Northeast  Level Estimated
12:12PM 64.6900 38.8863 63° Northeast  Level Estimated
12:13PM 64.7477 39.1585 64° Northeast  Level Estimated
12:14PM 64.8048 39.4319 64° Northeast  Level Estimated
12:15PM 64.8614 39.7065 64° Northeast  Level Estimated
12:16PM 64.9175 39.9822 64° Northeast  Level Estimated
12:17PM 64.9730 40.2591 65° Northeast  Level Estimated
12:18PM 65.0281 40.5371 65° Northeast  Level Estimated
12:19PM 65.0827 40.8162 65° Northeast  Level Estimated
12:20PM 65.1367 41.0965 65° Northeast  Level Estimated
12:21PM 65.1902 41.3779 66° East  Level Estimated
12:22PM 65.2432 41.6605 66° East  Level Estimated
12:23PM 65.2956 41.9442 66° East  Level Estimated
12:24PM 65.3475 42.2290 66° East  Level Estimated
12:25PM 65.3989 42.5150 67° East  Level Estimated
12:26PM 65.4497 42.8020 67° East  Level Estimated
12:27PM 65.5000 43.0902 67° East  Level Estimated
12:28PM 65.5497 43.3795 67° East  Level Estimated
12:29PM 65.5989 43.6698 68° East  Level Estimated
12:30PM 65.6475 43.9613 68° East  Level Estimated
12:31PM 65.6956 44.2539 68° East  Level Estimated
12:32PM 65.7431 44.5475 68° East  Level Estimated
12:33PM 65.7900 44.8422 69° East  Level Estimated
12:34PM 65.8364 45.1380 69° East  Level Estimated
12:35PM 65.8822 45.4349 69° East  Level Estimated
12:36PM 65.9274 45.7328 69° East  Level Estimated
12:37PM 65.9720 46.0317 70° East  Level Estimated
12:38PM 66.0161 46.3317 70° East  Level Estimated
12:39PM 66.0595 46.6327 70° East  Level Estimated
12:40PM 66.1024 46.9348 71° East  Level Estimated
12:41PM 66.1447 47.2379 71° East  Level Estimated
12:42PM 66.1864 47.5419 71° East  Level Estimated
12:43PM 66.2275 47.8470 71° East  Level Estimated
12:44PM 66.2680 48.1530 72° East  Level Estimated
12:45PM 66.3079 48.4601 72° East  Level Estimated
12:46PM 66.3472 48.7681 72° East  Level Estimated
12:47PM 66.3859 49.0770 73° East  Level Estimated
12:48PM 66.4239 49.3869 73° East  Level Estimated
12:49PM 66.4614 49.6978 73° East  Level Estimated
12:50PM 66.4982 50.0095 73° East  Level Estimated
12:51PM 66.5344 50.3222 74° East  Level Estimated
12:52PM 66.5700 50.6358 74° East  Level Estimated
12:53PM 66.6049 50.9503 74° East  Level Estimated
12:54PM 66.6393 51.2657 75° East  Level Estimated
12:55PM 66.6730 51.5819 75° East  Level Estimated
12:56PM 66.7060 51.8990 75° East  Level Estimated
12:57PM 66.7384 52.2169 75° East  Level Estimated
12:58PM 66.7702 52.5356 76° East  Level Estimated
12:59PM 66.8013 52.8552 76° East  Level Estimated
01:00PM 66.8318 53.1756 76° East  Level Estimated
01:01PM 66.8616 53.4967 77° East  Level Estimated
01:02PM 66.8908 53.8187 77° East  Level Estimated
01:03PM 66.9193 54.1414 77° East  Level Estimated
01:04PM 66.9472 54.4648 77° East  Level Estimated
01:05PM 66.9744 54.7890 78° East  Level Estimated
01:06PM 67.0009 55.1139 78° East  Level Estimated
01:07PM 67.0268 55.4395 78° East  Level Estimated
01:08PM 67.0520 55.7658 79° East  Level Estimated
01:09PM 67.0766 56.0927 79° East  Level Estimated
01:10PM 67.1004 56.4203 79° East  Level Estimated
01:11PM 67.1236 56.7486 80° East  Level Estimated
01:12PM 67.1461 57.0774 80° East  Level Estimated
01:13PM 67.1680 57.4069 80° East  Level Estimated
01:14PM 67.1892 57.7369 80° East  Level Estimated
01:15PM 67.2097 58.0676 81° East  Level Estimated
01:16PM 67.2295 58.3988 81° East  Level Estimated
01:17PM 67.2486 58.7305 81° East  Level Estimated
01:18PM 67.2670 59.0627 82° East  Level Estimated
01:19PM 67.2848 59.3955 82° East  Level Estimated
01:20PM 67.3018 59.7287 82° East  Level Estimated
01:21PM 67.3182 60.0624 83° East  Level Estimated
01:22PM 67.3339 60.3965 83° East  Level Estimated
01:23PM 67.3489 60.7311 83° East  Level Estimated
01:24PM 67.3632 61.0660 84° East  Level Estimated
01:25PM 67.3767 61.4014 84° East  Level Estimated
01:26PM 67.3896 61.7371 84° East  Level Estimated
01:27PM 67.4018 62.0732 84° East  Level Estimated
01:28PM 67.4133 62.4096 85° East  Level Estimated
01:29PM 67.4241 62.7464 85° East  Level Estimated
01:30PM 67.4342 63.0834 85° East  Level Estimated
01:31PM 67.4436 63.4207 86° East  Level Estimated
01:32PM 67.4523 63.7583 86° East  Level Estimated
01:32PM 68.4720 66.9350 86° East 521 600 37,000  Level FlightAware
01:32PM 68.4770 67.1970 87° East 521 600 37,000  Level FlightAware
01:33PM 68.4810 67.4610 88° East 520 598 37,000  Level FlightAware
01:34PM 68.4860 67.7480 87° East 520 598 37,000  Level FlightAware
01:34PM 68.4890 68.0200 88° East 520 598 37,000  Level FlightAware
01:35PM 68.4930 68.3050 88° East 520 598 37,000  Level FlightAware
01:36PM 68.4950 68.5710 89° East 520 598 37,000  Level FlightAware
01:37PM 68.4980 68.9160 88° East 518 596 37,000  Level FlightAware
01:37PM 68.5000 69.1920 89° East 517 595 37,000  Level FlightAware
01:38PM 68.5020 69.4590 89° East 517 595 37,000  Level FlightAware
01:39PM 68.5030 69.8340 89° East 519 597 37,000  Level FlightAware
01:40PM 68.5030 70.1240 90° East 520 598 37,000  Level FlightAware
01:41PM 68.5030 70.4640 90° East 519 597 37,000  Level FlightAware
01:41PM 68.5020 70.7040 91° East 517 595 37,000  Level FlightAware
01:42PM 68.5010 71.0160 90° East 516 594 37,000  Level FlightAware
01:43PM 68.4990 71.2860 91° East 515 593 37,000  Level FlightAware
01:44PM 68.4970 71.6030 91° East 515 593 37,000  Level FlightAware
01:44PM 68.4950 71.8570 91° East 515 593 37,000  Level FlightAware
01:45PM 68.4940 72.0230 91° East 515 593 37,000  Level FlightAware
01:46PM 68.4930 72.2440 91° East 515 593 37,000  Level FlightAware
01:46PM 68.4910 72.4650 91° East 515 593 37,000  Level FlightAware
01:47PM 68.4900 72.6860 91° East 515 593 37,000  Level FlightAware
01:48PM 68.4760 73.1520 94° East 514 592 37,000  Level FlightAware
01:48PM 68.4720 73.3270 93° East 514 592 37,000  Level FlightAware
01:49PM 68.4670 73.5920 93° East 515 593 37,000  Level FlightAware
01:49PM 68.4580 73.8670 95° East 517 595 37,000  Level FlightAware
01:50PM 68.4440 74.1740 97° East 518 596 37,000  Level FlightAware
01:51PM 68.4320 74.4650 96° East 520 598 37,000  Level FlightAware
01:52PM 68.4220 74.7000 96° East 520 598 37,000  Level FlightAware
01:52PM 68.4100 74.9590 97° East 520 598 37,000  Level FlightAware
01:53PM 68.3970 75.2430 97° East 519 597 37,000  Level FlightAware
01:54PM 68.3850 75.5060 97° East 519 597 37,000  Level FlightAware
01:54PM 68.3700 75.7890 98° East 519 597 37,000  Level FlightAware
01:55PM 68.3550 76.0810 98° East 521 600 37,000  Level FlightAware
01:56PM 68.3420 76.3400 98° East 521 600 37,000  Level FlightAware
01:57PM 68.3270 76.6050 99° East 520 598 37,000  Level FlightAware
01:57PM 68.3120 76.8620 99° East 520 598 37,000  Level FlightAware
01:58PM 68.2970 77.1230 99° East 519 597 37,000  Level FlightAware
01:59PM 68.2790 77.4260 99° East 519 597 37,000  Level FlightAware
01:59PM 68.2690 77.5850 100° East 520 598 37,000  Level FlightAware
02:00PM 68.2500 77.9070 99° East 521 600 37,000  Level FlightAware
02:01PM 68.2370 78.1260 99° East 521 600 37,000  Level FlightAware
02:02PM 68.2210 78.3980 99° East 521 600 37,000  Level FlightAware
02:02PM 68.2080 78.6160 99° East 521 600 37,000  Level FlightAware
02:03PM 68.1950 78.8340 99° East 521 600 37,000  Level FlightAware
02:04PM 68.1420 79.4590 103° East 517 595 37,000  Level FlightAware
02:05PM 68.1270 79.6580 101° East 518 596 37,000  Level FlightAware
02:05PM 68.1080 79.9110 101° East 518 596 37,000  Level FlightAware
02:06PM 68.0930 80.1250 101° East 518 596 37,000  Level FlightAware
02:07PM 68.0770 80.3390 101° East 518 596 37,000  Level FlightAware
02:07PM 68.0610 80.5540 101° East 518 596 37,000  Level FlightAware
02:08PM 68.0460 80.7680 101° East 518 596 37,000  Level FlightAware
02:09PM 68.0260 81.0350 101° East 518 596 37,000  Level FlightAware
02:10PM 68.0110 81.2480 101° East 518 596 37,000  Level FlightAware
02:10PM 67.9950 81.4620 101° East 518 596 37,000  Level FlightAware
02:11PM 67.9800 81.6750 101° East 518 596 37,000  Level FlightAware
02:12PM 67.9640 81.8890 101° East 518 596 37,000  Level FlightAware
02:12PM 67.9450 82.1550 101° East 518 596 37,000  Level FlightAware
02:13PM 67.9290 82.3680 101° East 518 596 37,000  Level FlightAware
02:14PM 67.9140 82.5810 101° East 518 596 37,000  Level FlightAware
02:14PM 67.8980 82.7930 101° East 518 596 37,000  Level FlightAware
02:17PM 67.8279 83.4740 105° East  Level Estimated
02:18PM 67.7927 83.8046 106° East  Level Estimated
02:19PM 67.7569 84.1343 106° East  Level Estimated
02:20PM 67.7204 84.4630 106° East  Level Estimated
02:21PM 67.6832 84.7906 107° East  Level Estimated
02:22PM 67.6453 85.1172 107° East  Level Estimated
02:23PM 67.6068 85.4427 107° East  Level Estimated
02:24PM 67.5677 85.7672 107° East  Level Estimated
02:25PM 67.5279 86.0906 108° East  Level Estimated
02:26PM 67.4875 86.4129 108° East  Level Estimated
02:27PM 67.4464 86.7340 108° East  Level Estimated
02:28PM 67.4047 87.0541 109° East  Level Estimated
02:29PM 67.3623 87.3730 109° East  Level Estimated
02:30PM 67.3194 87.6908 109° East  Level Estimated
02:31PM 67.2758 88.0075 109° East  Level Estimated
02:32PM 67.2316 88.3230 110° East  Level Estimated
02:33PM 67.1867 88.6373 110° East  Level Estimated
02:34PM 67.1413 88.9505 110° East  Level Estimated
02:35PM 67.0952 89.2625 111° Southeast  Level Estimated
02:36PM 67.0486 89.5732 111° Southeast  Level Estimated
02:37PM 67.0013 89.8828 111° Southeast  Level Estimated
02:38PM 66.9534 90.1912 112° Southeast  Level Estimated
02:39PM 66.9050 90.4984 112° Southeast  Level Estimated
02:40PM 66.8559 90.8043 112° Southeast  Level Estimated
02:41PM 66.8063 91.1090 112° Southeast  Level Estimated
02:42PM 66.7561 91.4125 113° Southeast  Level Estimated
02:43PM 66.7053 91.7147 113° Southeast  Level Estimated
02:44PM 66.6539 92.0156 113° Southeast  Level Estimated
02:45PM 66.6019 92.3154 113° Southeast  Level Estimated
02:46PM 66.5494 92.6138 114° Southeast  Level Estimated
02:47PM 66.4963 92.9110 114° Southeast  Level Estimated
02:48PM 66.4427 93.2069 114° Southeast  Level Estimated
02:49PM 66.3885 93.5016 115° Southeast  Level Estimated
02:50PM 66.3337 93.7950 115° Southeast  Level Estimated
02:51PM 66.2784 94.0870 115° Southeast  Level Estimated
02:52PM 66.2225 94.3778 115° Southeast  Level Estimated
02:53PM 66.1661 94.6674 116° Southeast  Level Estimated
02:54PM 66.1092 94.9556 116° Southeast  Level Estimated
02:55PM 66.0517 95.2425 116° Southeast  Level Estimated
02:56PM 65.9937 95.5281 116° Southeast  Level Estimated
02:57PM 65.9352 95.8124 117° Southeast  Level Estimated
02:58PM 65.8761 96.0954 117° Southeast  Level Estimated
02:59PM 65.8166 96.3771 117° Southeast  Level Estimated
03:00PM 65.7565 96.6575 117° Southeast  Level Estimated
03:01PM 65.6959 96.9366 118° Southeast  Level Estimated
03:02PM 65.6348 97.2144 118° Southeast  Level Estimated
03:03PM 65.5732 97.4909 118° Southeast  Level Estimated
03:04PM 65.5110 97.7660 118° Southeast  Level Estimated
03:05PM 65.4484 98.0399 119° Southeast  Level Estimated
03:06PM 65.3853 98.3124 119° Southeast  Level Estimated
03:07PM 65.3217 98.5836 119° Southeast  Level Estimated
03:08PM 65.2577 98.8536 119° Southeast  Level Estimated
03:09PM 65.1931 99.1222 120° Southeast  Level Estimated
03:10PM 65.1281 99.3895 120° Southeast  Level Estimated
03:11PM 65.0626 99.6554 120° Southeast  Level Estimated
03:12PM 64.9966 99.9201 120° Southeast  Level Estimated
03:13PM 64.9302 100.1835 121° Southeast  Level Estimated
03:14PM 64.8633 100.4455 121° Southeast  Level Estimated
03:15PM 64.7959 100.7063 121° Southeast  Level Estimated
03:16PM 64.7281 100.9657 121° Southeast  Level Estimated
03:17PM 64.6598 101.2239 122° Southeast  Level Estimated
03:18PM 64.5911 101.4807 122° Southeast  Level Estimated
03:19PM 64.5220 101.7363 122° Southeast  Level Estimated
03:20PM 64.4524 101.9905 122° Southeast  Level Estimated
03:21PM 64.3823 102.2435 123° Southeast  Level Estimated
03:22PM 64.3119 102.4951 123° Southeast  Level Estimated
03:23PM 64.2410 102.7455 123° Southeast  Level Estimated
03:24PM 64.1696 102.9946 123° Southeast  Level Estimated
03:25PM 64.0979 103.2424 123° Southeast  Level Estimated
03:26PM 64.0257 103.4890 124° Southeast  Level Estimated
03:27PM 63.9532 103.7342 124° Southeast  Level Estimated
03:28PM 63.8802 103.9782 124° Southeast  Level Estimated
03:29PM 63.8068 104.2209 124° Southeast  Level Estimated
03:30PM 63.7330 104.4624 125° Southeast  Level Estimated
03:31PM 63.6587 104.7026 125° Southeast  Level Estimated
03:32PM 63.5841 104.9415 125° Southeast  Level Estimated
03:33PM 63.5091 105.1792 125° Southeast  Level Estimated
03:34PM 63.4338 105.4157 125° Southeast  Level Estimated
03:35PM 63.3580 105.6508 126° Southeast  Level Estimated
03:36PM 63.2818 105.8848 126° Southeast  Level Estimated
03:37PM 63.2052 106.1175 126° Southeast  Level Estimated
03:38PM 63.1283 106.3490 126° Southeast  Level Estimated
03:39PM 63.0510 106.5793 126° Southeast  Level Estimated
03:40PM 62.9734 106.8083 127° Southeast  Level Estimated
03:41PM 62.8953 107.0361 127° Southeast  Level Estimated
03:42PM 62.8169 107.2627 127° Southeast  Level Estimated
03:43PM 62.7381 107.4881 127° Southeast  Level Estimated
03:44PM 62.6590 107.7123 127° Southeast  Level Estimated
03:45PM 62.5795 107.9353 128° Southeast  Level Estimated
03:46PM 62.4997 108.1572 128° Southeast  Level Estimated
03:47PM 62.4195 108.3778 128° Southeast  Level Estimated
03:48PM 62.3390 108.5972 128° Southeast  Level Estimated
03:49PM 62.2581 108.8155 128° Southeast  Level Estimated
03:50PM 62.1769 109.0326 129° Southeast  Level Estimated
03:51PM 62.0953 109.2485 129° Southeast  Level Estimated
03:52PM 62.0134 109.4633 129° Southeast  Level Estimated
03:53PM 61.9312 109.6769 129° Southeast  Level Estimated
03:54PM 61.8486 109.8894 129° Southeast  Level Estimated
03:55PM 61.7658 110.1007 130° Southeast  Level Estimated
03:56PM 61.6826 110.3109 130° Southeast  Level Estimated
03:57PM 61.5990 110.5199 130° Southeast  Level Estimated
03:58PM 61.5152 110.7278 130° Southeast  Level Estimated
03:59PM 61.4310 110.9346 130° Southeast  Level Estimated
04:00PM 61.3466 111.1403 131° Southeast  Level Estimated
04:01PM 61.2618 111.3449 131° Southeast  Level Estimated
04:02PM 61.1767 111.5484 131° Southeast  Level Estimated
04:03PM 61.0914 111.7508 131° Southeast  Level Estimated
04:04PM 61.0057 111.9521 131° Southeast  Level Estimated
04:05PM 60.9197 112.1523 131° Southeast  Level Estimated
04:06PM 60.8334 112.3514 132° Southeast  Level Estimated
04:07PM 60.7468 112.5495 132° Southeast  Level Estimated
04:08PM 60.6600 112.7464 132° Southeast  Level Estimated
04:09PM 60.5728 112.9424 132° Southeast  Level Estimated
04:10PM 60.4854 113.1372 132° Southeast  Level Estimated
04:11PM 60.3977 113.3310 132° Southeast  Level Estimated
04:12PM 60.3097 113.5238 133° Southeast  Level Estimated
04:13PM 60.2214 113.7156 133° Southeast  Level Estimated
04:14PM 60.1329 113.9063 133° Southeast  Level Estimated
04:15PM 60.0440 114.0960 133° Southeast  Level Estimated
04:16PM 59.9550 114.2846 133° Southeast  Level Estimated
04:17PM 59.8656 114.4723 133° Southeast  Level Estimated
04:18PM 59.7760 114.6589 134° Southeast  Level Estimated
04:19PM 59.6861 114.8446 134° Southeast  Level Estimated
04:20PM 59.5959 115.0292 134° Southeast  Level Estimated
04:21PM 59.5055 115.2129 134° Southeast  Level Estimated
04:22PM 59.4149 115.3955 134° Southeast  Level Estimated
04:23PM 59.3239 115.5772 134° Southeast  Level Estimated
04:24PM 59.2328 115.7580 135° Southeast  Level Estimated
04:25PM 59.1413 115.9377 135° Southeast  Level Estimated
04:26PM 59.0497 116.1165 135° Southeast  Level Estimated
04:27PM 58.9578 116.2944 135° Southeast  Level Estimated
04:28PM 58.8656 116.4713 135° Southeast  Level Estimated
04:29PM 58.7732 116.6472 135° Southeast  Level Estimated
04:30PM 58.6806 116.8223 135° Southeast  Level Estimated
04:31PM 58.5877 116.9964 136° Southeast  Level Estimated
04:32PM 58.4946 117.1695 136° Southeast  Level Estimated
04:33PM 58.4013 117.3418 136° Southeast  Level Estimated
04:34PM 58.3077 117.5132 136° Southeast  Level Estimated
04:35PM 58.2140 117.6836 136° Southeast  Level Estimated
04:36PM 58.1199 117.8531 136° Southeast  Level Estimated
04:37PM 58.0257 118.0218 137° Southeast  Level Estimated
04:38PM 57.9312 118.1895 137° Southeast  Level Estimated
04:39PM 57.8366 118.3564 137° Southeast  Level Estimated
04:40PM 57.7416 118.5224 137° Southeast  Level Estimated
04:41PM 57.6465 118.6876 137° Southeast  Level Estimated
04:42PM 57.5512 118.8518 137° Southeast  Level Estimated
04:43PM 57.4557 119.0153 137° Southeast  Level Estimated
04:44PM 57.3599 119.1778 137° Southeast  Level Estimated
04:45PM 57.2640 119.3395 138° Southeast  Level Estimated
04:46PM 57.1678 119.5004 138° Southeast  Level Estimated
04:47PM 57.0714 119.6604 138° Southeast  Level Estimated
04:48PM 56.9748 119.8196 138° Southeast  Level Estimated
04:49PM 56.8781 119.9780 138° Southeast  Level Estimated
04:50PM 56.7811 120.1356 138° Southeast  Level Estimated
04:51PM 56.6839 120.2923 138° Southeast  Level Estimated
04:52PM 56.5865 120.4483 139° Southeast  Level Estimated
04:53PM 56.4890 120.6034 139° Southeast  Level Estimated
04:54PM 56.3912 120.7578 139° Southeast  Level Estimated
04:55PM 56.2933 120.9113 139° Southeast  Level Estimated
04:56PM 56.1951 121.0641 139° Southeast  Level Estimated
04:57PM 56.0968 121.2161 139° Southeast  Level Estimated
04:58PM 55.9983 121.3673 139° Southeast  Level Estimated
04:59PM 55.8996 121.5177 139° Southeast  Level Estimated
05:00PM 55.8007 121.6674 140° Southeast  Level Estimated
05:01PM 55.7017 121.8163 140° Southeast  Level Estimated
05:02PM 55.6024 121.9645 140° Southeast  Level Estimated
05:03PM 55.5030 122.1119 140° Southeast  Level Estimated
05:04PM 55.4034 122.2586 140° Southeast  Level Estimated
05:05PM 55.3037 122.4045 140° Southeast  Level Estimated
05:06PM 55.2037 122.5497 140° Southeast  Level Estimated
05:07PM 55.1036 122.6942 140° Southeast  Level Estimated
05:08PM 55.0033 122.8379 141° Southeast  Level Estimated
05:09PM 54.9029 122.9809 141° Southeast  Level Estimated
05:10PM 54.8023 123.1233 141° Southeast  Level Estimated
05:11PM 54.7015 123.2649 141° Southeast  Level Estimated
05:12PM 54.6006 123.4058 141° Southeast  Level Estimated
05:13PM 54.4994 123.5460 141° Southeast  Level Estimated
05:14PM 54.3982 123.6855 141° Southeast  Level Estimated
05:15PM 54.2967 123.8243 141° Southeast  Level Estimated
05:16PM 54.1951 123.9625 141° Southeast  Level Estimated
05:17PM 54.0934 124.1000 142° Southeast  Level Estimated
05:18PM 53.9915 124.2368 142° Southeast  Level Estimated
05:19PM 53.8895 124.3729 142° Southeast  Level Estimated
05:20PM 53.7873 124.5084 142° Southeast  Level Estimated
05:21PM 53.6849 124.6432 142° Southeast  Level Estimated
05:22PM 53.5824 124.7773 142° Southeast  Level Estimated
05:23PM 53.4797 124.9109 142° Southeast  Level Estimated
05:24PM 53.3769 125.0437 142° Southeast  Level Estimated
05:25PM 53.2740 125.1759 142° Southeast  Level Estimated
05:26PM 53.1709 125.3075 143° Southeast  Level Estimated
05:27PM 53.0676 125.4385 143° Southeast  Level Estimated
05:28PM 52.9642 125.5688 143° Southeast  Level Estimated
05:29PM 52.8607 125.6985 143° Southeast  Level Estimated
05:30PM 52.7570 125.8276 143° Southeast  Level Estimated
05:31PM 52.6532 125.9560 143° Southeast  Level Estimated
05:32PM 52.5493 126.0839 143° Southeast  Level Estimated
05:33PM 52.4452 126.2112 143° Southeast  Level Estimated
05:34PM 52.3410 126.3378 143° Southeast  Level Estimated
05:35PM 52.2366 126.4639 143° Southeast  Level Estimated
05:36PM 52.1321 126.5894 144° Southeast  Level Estimated
05:37PM 52.0275 126.7142 144° Southeast  Level Estimated
05:37PM 51.2350 132.1640 144° Southeast 511 588 37,000  Level FlightAware
05:38PM 51.9227 126.8385 144° Southeast  Level Estimated
05:38PM 51.1560 132.2630 142° Southeast 511 588 37,000  Level FlightAware
05:38PM 51.0860 132.3470 143° Southeast 510 587 37,000  Level FlightAware
05:39PM 50.9840 132.4630 144° Southeast 512 589 37,000  Level FlightAware
05:40PM 50.9090 132.5440 146° Southeast 510 587 37,000  Level FlightAware
05:40PM 50.8180 132.6450 145° Southeast 509 586 37,000  Level FlightAware
05:41PM 50.7440 132.7250 146° Southeast 510 587 37,000  Level FlightAware
05:42PM 50.6260 132.8540 145° Southeast 511 588 37,000  Level FlightAware
05:43PM 50.5250 132.9640 145° Southeast 510 587 37,000  Level FlightAware
05:43PM 50.4470 133.0490 145° Southeast 509 586 37,000  Level FlightAware
05:44PM 50.3450 133.1580 146° Southeast 509 586 37,000  Level FlightAware
05:45PM 50.2760 133.2320 146° Southeast 509 586 37,000  Level FlightAware
05:46PM 50.1950 133.3190 145° Southeast 511 588 37,000  Level FlightAware
05:46PM 50.1340 133.3830 146° Southeast 512 589 37,000  Level FlightAware
05:48PM 49.9580 133.5690 146° Southeast 507 583 37,000  Level FlightAware
05:48PM 49.8910 133.6390 146° Southeast 507 583 37,000  Level FlightAware
05:49PM 49.8100 133.7240 146° Southeast 505 581 37,000  Level FlightAware
05:50PM 49.7410 133.7950 146° Southeast 506 582 37,000  Level FlightAware
05:50PM 49.6430 133.8970 146° Southeast 508 585 37,000  Level FlightAware
05:51PM 49.5630 133.9790 146° Southeast 508 585 37,000  Level FlightAware
05:52PM 49.4870 134.0570 146° Southeast 508 585 37,000  Level FlightAware
05:52PM 49.3860 134.1600 146° Southeast 509 586 37,000  Level FlightAware
05:53PM 49.2860 134.2630 146° Southeast 509 586 37,000  Level FlightAware
05:54PM 49.2070 134.3430 147° Southeast 505 581 37,000  Level FlightAware
05:55PM 49.1310 134.4210 146° Southeast 505 581 37,000  Level FlightAware
05:56PM 49.0270 134.5460 142° Southeast 499 574 37,000  Level FlightAware
05:56PM 48.9500 134.6540 137° Southeast 499 574 37,000  Level FlightAware
05:57PM 48.8770 134.7540 138° Southeast 498 573 37,000  Level FlightAware
05:58PM 48.8350 134.8130 137° Southeast 498 573 37,000  Level FlightAware
05:59PM 48.7430 134.9390 138° Southeast 497 572 37,000  Level FlightAware
05:59PM 48.6790 135.0270 138° Southeast 498 573 37,000  Level FlightAware
06:00PM 48.6140 135.1190 137° Southeast 498 573 37,000  Level FlightAware
06:01PM 48.5260 135.2130 145° Southeast 511 588 37,000  Level FlightAware
06:01PM 48.4230 135.2920 153° Southeast 518 596 37,000  Level FlightAware
06:02PM 48.3230 135.3590 156° South 517 595 37,000  Level FlightAware
06:03PM 48.2090 135.4350 156° South 516 594 37,000  Level FlightAware
06:04PM 48.1380 135.4820 156° South 516 594 37,000  Level FlightAware
06:04PM 48.0470 135.5420 156° South 516 594 37,000  Level FlightAware
06:05PM 47.9390 135.6130 156° South 514 592 37,000  Level FlightAware
06:06PM 47.8590 135.6660 156° South 512 589 37,000  Level FlightAware
06:06PM 47.7660 135.7270 156° South 510 587 37,000  Level FlightAware
06:07PM 47.6780 135.7840 156° South 508 585 37,000  Level FlightAware
06:08PM 47.5840 135.8450 156° South 510 587 37,000  Level FlightAware
06:09PM 47.4900 135.9060 156° South 511 588 37,000  Level FlightAware
06:09PM 47.4140 135.9550 156° South 511 588 37,000  Level FlightAware
06:10PM 47.3120 136.0200 157° South 511 588 37,000  Level FlightAware
06:11PM 47.2250 136.0760 156° South 511 588 37,000  Level FlightAware
06:12PM 47.1050 136.1560 156° South 512 589 37,000  Level FlightAware
06:12PM 46.9950 136.2290 156° South 513 590 37,000  Level FlightAware
06:13PM 46.8820 136.2980 157° South 514 592 37,000  Level FlightAware
06:14PM 46.7790 136.3380 165° South 522 601 37,000  Level FlightAware
06:15PM 46.6870 136.3560 172° South 529 609 37,000  Level FlightAware
06:15PM 46.5840 136.3710 174° South 528 608 37,000  Level FlightAware
06:16PM 46.4910 136.3860 174° South 528 608 37,000  Level FlightAware
06:17PM 46.3780 136.4030 174° South 529 609 37,000  Level FlightAware
06:18PM 46.2620 136.4200 174° South 531 611 37,000  Level FlightAware
06:18PM 46.1410 136.4390 174° South 533 613 37,000  Level FlightAware
06:19PM 46.0490 136.4520 174° South 534 615 37,000  Level FlightAware
06:20PM 45.9320 136.4690 174° South 535 616 37,000  Level FlightAware
06:20PM 45.8680 136.4790 174° South 535 616 37,000  Level FlightAware
06:21PM 45.7720 136.4930 174° South 535 616 37,000  Level FlightAware
06:22PM 45.6880 136.5060 174° South 535 616 37,000  Level FlightAware
06:22PM 45.6040 136.5180 174° South 535 616 37,000  Level FlightAware
06:23PM 45.5210 136.5310 174° South 535 616 37,000  Level FlightAware
06:24PM 45.4160 136.5470 174° South 535 616 37,000  Level FlightAware
06:25PM 45.3320 136.5590 174° South 535 616 37,000  Level FlightAware
06:25PM 45.2490 136.5720 174° South 535 616 37,000  Level FlightAware
06:26PM 45.1650 136.5840 174° South 535 616 37,000  Level FlightAware
06:27PM 45.0810 136.5970 174° South 535 616 37,000  Level FlightAware
06:27PM 44.9770 136.6120 174° South 535 616 37,000  Level FlightAware
06:28PM 44.8930 136.6250 174° South 535 616 37,000  Level FlightAware
06:29PM 44.8090 136.6370 174° South 535 616 37,000  Level FlightAware
06:29PM 44.7260 136.6490 174° South 535 616 37,000  Level FlightAware
06:30PM 44.6420 136.6620 174° South 535 616 37,000  Level FlightAware
06:33PM 44.3495 136.8028 161° South  Level Estimated
06:34PM 44.2267 136.8614 161° South  Level Estimated
06:35PM 44.1039 136.9198 161° South  Level Estimated
06:36PM 43.9811 136.9780 161° South  Level Estimated
06:37PM 43.8582 137.0359 161° South  Level Estimated
06:38PM 43.7353 137.0936 161° South  Level Estimated
06:39PM 43.6124 137.1510 161° South  Level Estimated
06:40PM 43.4895 137.2082 161° South  Level Estimated
06:41PM 43.3665 137.2652 161° South  Level Estimated
06:42PM 43.2435 137.3219 161° South  Level Estimated
06:43PM 43.1204 137.3784 161° South  Level Estimated
06:44PM 42.9974 137.4347 162° South  Level Estimated
06:45PM 42.8743 137.4908 162° South  Level Estimated
06:46PM 42.7512 137.5466 162° South  Level Estimated
06:47PM 42.6280 137.6022 162° South  Level Estimated
06:47PM 41.7740 136.7780 162° South 530 610 37,000  Level FlightAware
06:48PM 41.6600 136.7930 174° South 538 619 37,000  Level FlightAware
06:49PM 41.5480 136.8300 166° South 537 618 37,000  Level FlightAware
06:49PM 41.4560 136.8720 161° South 529 609 37,000  Level FlightAware
06:50PM 41.3610 136.9150 161° South 525 604 37,000  Level FlightAware
06:51PM 41.2580 136.9620 161° South 529 609 37,000  Level FlightAware
06:51PM 41.1640 137.0040 161° South 527 606 37,000  Level FlightAware
06:52PM 41.0620 137.0500 161° South 527 606 37,000  Level FlightAware
06:53PM 40.9830 137.0860 161° South 527 606 37,000  Level FlightAware
06:54PM 40.8650 137.1390 161° South 529 609 37,000  Level FlightAware
06:54PM 40.7710 137.1810 161° South 527 606 37,000  Level FlightAware
06:55PM 40.6680 137.2260 162° South 525 604 37,000  Level FlightAware
06:56PM 40.5800 137.2660 161° South 526 605 37,000  Level FlightAware
06:56PM 40.4840 137.3080 162° South 527 606 37,000  Level FlightAware
06:57PM 40.3850 137.3520 161° South 528 608 37,000  Level FlightAware
06:58PM 40.2890 137.3940 162° South 529 609 37,000  Level FlightAware
06:58PM 40.1980 137.4340 161° South 529 609 37,000  Level FlightAware
06:59PM 40.0540 137.4970 161° South 524 603 37,000  Level FlightAware
07:00PM 39.9490 137.5430 161° South 523 602 37,000  Level FlightAware
07:01PM 39.8780 137.5740 161° South 523 602 37,000  Level FlightAware
07:01PM 39.8000 137.6090 161° South 523 602 37,000  Level FlightAware
07:02PM 39.6470 137.6750 162° South 522 601 37,000  Level FlightAware
07:03PM 39.5690 137.7090 161° South 522 601 37,000  Level FlightAware
07:05PM 39.3470 137.8020 162° South 525 604 37,000  Level FlightAware
07:06PM 39.1580 137.9180 155° Southeast 536 617 37,000  Level FlightAware
07:07PM 39.0510 138.0240 142° Southeast 527 606 37,000  Level FlightAware
07:08PM 38.9390 138.1520 138° Southeast 532 612 37,000  Level FlightAware
07:09PM 38.8490 138.2530 139° Southeast 536 617 37,000  Level FlightAware
07:09PM 38.7660 138.3470 139° Southeast 534 615 37,000  Level FlightAware
07:10PM 38.6880 138.4350 139° Southeast 533 613 37,000  Level FlightAware
07:11PM 38.6050 138.5280 139° Southeast 529 609 37,000  Level FlightAware
07:12PM 38.5320 138.6090 139° Southeast 527 606 37,000  Level FlightAware
07:12PM 38.4660 138.6830 139° Southeast 524 603 37,000  Level FlightAware
07:13PM 38.3710 138.7890 139° Southeast 523 602 37,000 -240 Level FlightAware
07:15PM 38.1490 139.0340 139° Southeast 526 605 36,300 -600 Descending FlightAware
07:16PM 38.0730 139.1170 139° Southeast 530 610 35,400 -1,740 Descending FlightAware
07:16PM 37.9960 139.2020 139° Southeast 528 608 34,000 -2,640 Descending FlightAware
07:17PM 37.9170 139.2880 139° Southeast 548 631 31,700 -2,400 Descending FlightAware
07:18PM 37.8440 139.3670 139° Southeast 528 608 30,600 -2,160 Descending FlightAware
07:19PM 37.7640 139.4540 139° Southeast 486 559 28,700 -1,860 Descending FlightAware
07:19PM 37.6970 139.5290 138° Southeast 473 544 28,000 -540 Descending FlightAware
07:20PM 37.6370 139.6160 131° Southeast 467 537 28,000  Level FlightAware
07:21PM 37.5850 139.6960 129° Southeast 439 505 28,000 -240 Level FlightAware
07:21PM 37.5230 139.7910 129° Southeast 439 505 27,700 -840 Descending FlightAware
07:22PM 37.4690 139.8740 129° Southeast 433 498 26,800 -1,380 Descending FlightAware
07:23PM 37.4220 139.9460 129° Southeast 429 494 25,900 -1,080 Descending FlightAware
07:23PM 37.3720 140.0220 130° Southeast 413 475 25,300 -660 Descending FlightAware
07:24PM 37.3130 140.1130 129° Southeast 411 473 25,000 -240 Descending FlightAware
07:25PM 37.2630 140.1880 130° Southeast 412 474 25,000  Level FlightAware
07:26PM 37.2020 140.2820 129° Southeast 408 470 25,000 -120 Level FlightAware
07:26PM 37.1470 140.3650 130° Southeast 403 464 24,800 -1,080 Descending FlightAware
07:27PM 37.0980 140.4380 130° Southeast 408 470 23,500 -1,560 Descending FlightAware
07:28PM 37.0420 140.5230 130° Southeast 405 466 22,600 -1,080 Descending FlightAware
07:29PM 36.9790 140.6150 131° Southeast 397 457 21,700 -1,020 Descending FlightAware
07:30PM 36.9100 140.6700 147° Southeast 376 433 20,900 -1,140 Descending FlightAware
07:30PM 36.8940 140.6740 169° South 365 420 20,700 -1,020 Descending FlightAware
07:30PM 36.8170 140.6580 189° South 346 398 20,000 -1,020 Descending FlightAware
07:31PM 36.7530 140.6430 191° South 346 398 19,300 -1,020 Descending FlightAware
07:32PM 36.6800 140.6250 191° South 391 450 18,600 -1,020 Descending FlightAware
07:33PM 36.6050 140.6070 191° South 406 467 17,900 -1,080 Descending FlightAware
07:33PM 36.5330 140.5890 191° South 393 452 17,200 -1,020 Descending FlightAware
07:34PM 36.4490 140.5690 191° South 391 450 16,500 -1,020 Descending FlightAware
07:35PM 36.3770 140.5510 191° South 391 450 15,800 -1,320 Descending FlightAware
07:35PM 36.3030 140.5450 184° South 401 461 14,800 -1,440 Descending FlightAware
07:36PM 36.2230 140.5810 160° South 408 470 13,800 -1,380 Descending FlightAware
07:37PM 36.1460 140.6150 160° South 398 458 12,800 -1,380 Descending FlightAware
07:37PM 36.0740 140.6460 161° South 391 450 11,900 -1,320 Descending FlightAware
07:38PM 36.0010 140.6810 159° South 376 433 11,000 -1,020 Descending FlightAware
07:39PM 35.9350 140.7080 162° South 339 390 10,500 -660 Descending FlightAware
07:40PM 35.8690 140.7340 162° South 321 369 10,100 -600 Descending FlightAware
07:40PM 35.8350 140.7480 162° South 291 335 9,800 -600 Descending FlightAware
07:41PM 35.7980 140.7650 160° South 276 318 9,600 -600 Descending FlightAware
07:41PM 35.7710 140.7770 160° South 256 295 9,300 -840 Descending FlightAware
07:41PM 35.7500 140.7860 161° South 260 299 9,000 -840 Descending FlightAware
07:42PM 35.7200 140.7990 161° South 257 296 8,600 -1,140 Descending FlightAware
07:42PM 35.6760 140.8200 159° South 261 300 7,800 -1,140 Descending FlightAware
07:43PM 35.6440 140.8300 166° South 250 288 7,400 -780 Descending FlightAware
07:43PM 35.6300 140.8310 177° South 245 282 7,300 -360 Descending FlightAware
07:43PM 35.6030 140.8300 182° South 226 260 7,200 -540 Descending FlightAware
07:44PM 35.5640 140.8310 179° South 227 261 6,800 -840 Descending FlightAware
07:44PM 35.5410 140.8210 199° South 214 246 6,400 -1,140 Descending FlightAware
07:45PM 35.5180 140.7980 219° Southwest 218 251 5,800 -1,200 Descending FlightAware
07:45PM 35.4940 140.7740 219° Southwest 221 254 5,200 -1,200 Descending FlightAware
07:46PM 35.4830 140.7470 243° Southwest 212 244 4,700 -1,140 Descending FlightAware
07:46PM 35.4780 140.7120 260° West 212 244 4,200 -780 Descending FlightAware
07:47PM 35.4730 140.6850 257° West 209 241 4,000 -300 Descending FlightAware
07:47PM 35.4700 140.6600 262° West 188 216 4,000  Level FlightAware
07:48PM 35.4770 140.6370 290° West 174 200 4,000  Level FlightAware
07:48PM 35.4870 140.6160 300° West 179 206 4,000  Level FlightAware
07:48PM 35.5000 140.5900 302° West 182 209 4,000  Level FlightAware
07:49PM 35.5090 140.5720 302° West 181 208 4,000  Level FlightAware
07:49PM 35.5270 140.5470 312° West 175 201 4,000  Level FlightAware
07:50PM 35.5480 140.5310 328° Northwest 179 206 4,000  Level FlightAware
07:50PM 35.5620 140.5210 330° Northwest 174 200 4,000 -240 Level FlightAware
07:51PM 35.5870 140.5030 330° Northwest 181 208 3,800 -720 Descending FlightAware
07:51PM 35.6060 140.4900 331° Northwest 176 203 3,300 -1,020 Descending FlightAware
07:52PM 35.6260 140.4750 329° Northwest 171 197 2,900 -900 Descending FlightAware
07:52PM 35.6470 140.4600 330° Northwest 151 174 2,400 -900 Descending FlightAware
07:53PM 35.6600 140.4510 331° Northwest 134 154 2,100 -660 Descending FlightAware
07:53PM 35.6750 140.4400 329° Northwest 138 159 1,800 -780 Descending FlightAware
07:54PM 35.6890 140.4300 330° Northwest 130 150 1,400 -780 Descending FlightAware
07:54PM 35.7050 140.4190 331° Northwest 133 153 1,100 -660 Descending FlightAware
07:54PM 35.7200 140.4080 329° Northwest 134 154 800 -420 Descending FlightAware
07:55PM 35.7360 140.3960 329° Northwest 134 154 700 -180 Descending FlightAware
07:58PM 35.7647 140.3864 345° North  Level Estimated
07:59PM 35.7647 140.3864 338° Northwest  Level Estimated
08:00PM 35.7647 140.3864 338° Northwest  Level Estimated
08:01PM 35.7647 140.3864 338° Northwest  Level Estimated
08:02PM 35.7647 140.3864 338° Northwest  Level Estimated
08:03PM 35.7647 140.3864 338° Northwest  Level Estimated
08:04PM 35.7647 140.3864 338° Northwest  Level Estimated
08:05PM 35.7647 140.3864 338° Northwest  Level Estimated